createdAt,value
2018-12-21T00:00:57.799Z,8.90
2018-12-21T00:03:26.920Z,8.90
2018-12-21T00:05:56.070Z,8.90
2018-12-21T00:08:25.116Z,8.90
2018-12-21T00:10:54.247Z,8.90
2018-12-21T00:13:23.489Z,8.90
2018-12-21T00:15:52.601Z,8.90
2018-12-21T00:18:21.772Z,8.90
2018-12-21T00:20:50.870Z,9.00
2018-12-21T00:23:20.034Z,9.00
2018-12-21T00:25:49.812Z,9.00
2018-12-21T00:28:18.864Z,9.00
2018-12-21T00:30:47.130Z,9.00
2018-12-21T00:33:21.537Z,9.00
2018-12-21T00:35:56.061Z,9.00
2018-12-21T00:38:30.579Z,9.00
2018-12-21T00:41:04.974Z,9.00
2018-12-21T00:43:39.401Z,8.90
2018-12-21T00:46:13.758Z,8.90
2018-12-21T00:48:42.892Z,8.90
2018-12-21T00:51:12.046Z,8.90
2018-12-21T00:53:41.141Z,8.90
2018-12-21T00:56:10.218Z,9.00
2018-12-21T00:58:39.283Z,9.00
2018-12-21T01:01:08.338Z,9.00
2018-12-21T01:03:37.555Z,9.10
2018-12-21T01:06:06.868Z,9.10
2018-12-21T01:08:36.014Z,9.10
2018-12-21T01:11:05.055Z,9.10
2018-12-21T01:13:34.157Z,9.10
2018-12-21T01:16:03.287Z,9.00
2018-12-21T01:18:32.331Z,9.00
2018-12-21T01:21:01.387Z,9.00
2018-12-21T01:23:30.641Z,9.10
2018-12-21T01:25:59.817Z,9.10
2018-12-21T01:28:29.492Z,9.10
2018-12-21T01:30:58.623Z,9.10
2018-12-21T01:33:27.767Z,9.00
2018-12-21T01:35:56.807Z,9.10
2018-12-21T01:38:25.918Z,9.10
2018-12-21T01:40:54.957Z,9.10
2018-12-21T01:43:24.072Z,9.10
2018-12-21T01:45:53.693Z,9.10
2018-12-21T01:48:22.761Z,9.10
2018-12-21T01:50:52.000Z,9.10
2018-12-21T01:53:21.039Z,9.10
2018-12-21T01:55:50.204Z,9.10
2018-12-21T01:58:19.507Z,9.10
2018-12-21T02:00:48.617Z,9.10
2018-12-21T02:03:17.781Z,9.10
2018-12-21T02:05:46.851Z,9.10
2018-12-21T02:08:15.988Z,9.00
2018-12-21T02:10:45.053Z,8.90
2018-12-21T02:13:14.144Z,8.80
2018-12-21T02:15:43.456Z,8.80
2018-12-21T02:18:12.565Z,8.70
2018-12-21T02:20:42.266Z,8.60
2018-12-21T02:23:11.442Z,8.50
2018-12-21T02:25:40.568Z,8.50
2018-12-21T02:28:09.688Z,8.50
2018-12-21T02:30:38.734Z,8.50
2018-12-21T02:33:07.970Z,8.50
2018-12-21T02:35:37.032Z,8.50
2018-12-21T02:38:06.148Z,8.40
2018-12-21T02:40:35.191Z,8.50
2018-12-21T02:43:04.264Z,8.50
2018-12-21T02:45:33.340Z,8.50
2018-12-21T02:48:02.486Z,8.50
2018-12-21T02:50:31.594Z,8.60
2018-12-21T02:53:00.788Z,8.50
2018-12-21T02:55:30.696Z,8.60
2018-12-21T02:57:59.765Z,8.60
2018-12-21T03:00:28.958Z,8.60
2018-12-21T03:02:58.089Z,8.60
2018-12-21T03:05:27.695Z,8.60
2018-12-21T03:07:58.467Z,8.60
2018-12-21T03:10:27.551Z,8.60
2018-12-21T03:12:56.629Z,8.60
2018-12-21T03:15:25.684Z,8.60
2018-12-21T03:17:55.526Z,8.60
2018-12-21T03:20:24.717Z,8.60
2018-12-21T03:22:53.754Z,8.60
2018-12-21T03:25:23.605Z,8.60
2018-12-21T03:27:53.228Z,8.60
2018-12-21T03:30:22.385Z,8.70
2018-12-21T03:32:51.586Z,8.60
2018-12-21T03:35:20.761Z,8.60
2018-12-21T03:37:51.246Z,8.60
2018-12-21T03:40:22.864Z,8.60
2018-12-21T03:42:52.081Z,8.60
2018-12-21T03:45:21.734Z,8.60
2018-12-21T03:47:50.868Z,8.60
2018-12-21T03:50:19.985Z,8.60
2018-12-21T03:52:49.029Z,8.60
2018-12-21T03:55:18.087Z,8.60
2018-12-21T03:57:47.162Z,8.60
2018-12-21T04:00:16.295Z,8.60
2018-12-21T04:02:45.386Z,8.60
2018-12-21T04:05:14.436Z,8.60
2018-12-21T04:07:43.654Z,8.60
2018-12-21T04:10:12.929Z,8.70
2018-12-21T04:12:42.097Z,8.60
2018-12-21T04:15:11.297Z,8.60
2018-12-21T04:17:40.516Z,8.70
2018-12-21T04:20:10.773Z,8.70
2018-12-21T04:22:39.912Z,8.70
2018-12-21T04:25:08.933Z,8.70
2018-12-21T04:27:38.052Z,8.70
2018-12-21T04:30:08.393Z,8.70
2018-12-21T04:32:37.444Z,8.80
2018-12-21T04:35:07.212Z,8.80
2018-12-21T04:37:36.358Z,8.80
2018-12-21T04:40:06.327Z,8.80
2018-12-21T04:42:36.008Z,8.80
2018-12-21T04:45:05.889Z,8.80
2018-12-21T04:47:35.294Z,8.90
2018-12-21T04:50:04.963Z,8.90
2018-12-21T04:52:42.974Z,8.90
2018-12-21T04:55:05.689Z,9.00
2018-12-21T04:57:34.970Z,9.00
2018-12-21T05:00:05.456Z,9.00
2018-12-21T05:02:34.952Z,9.10
2018-12-21T05:05:04.593Z,9.10
2018-12-21T05:07:33.822Z,9.20
2018-12-21T05:10:03.612Z,9.20
2018-12-21T05:12:32.907Z,9.30
2018-12-21T05:15:02.108Z,9.30
2018-12-21T05:17:31.894Z,9.40
2018-12-21T05:20:00.969Z,9.40
2018-12-21T05:22:30.014Z,9.40
2018-12-21T05:24:59.059Z,9.40
2018-12-21T05:27:28.180Z,9.50
2018-12-21T05:29:57.301Z,9.50
2018-12-21T05:32:26.587Z,9.60
2018-12-21T05:34:55.664Z,9.60
2018-12-21T05:37:24.717Z,9.60
2018-12-21T05:39:53.898Z,9.60
2018-12-21T05:42:22.979Z,9.70
2018-12-21T05:44:52.125Z,9.60
2018-12-21T05:47:21.353Z,9.60
2018-12-21T05:49:50.572Z,9.70
2018-12-21T05:52:20.201Z,9.70
2018-12-21T05:54:49.494Z,9.70
2018-12-21T05:57:19.531Z,9.70
2018-12-21T05:59:48.868Z,9.80
2018-12-21T06:02:18.057Z,9.80
2018-12-21T06:04:47.118Z,9.80
2018-12-21T06:07:16.185Z,9.90
2018-12-21T06:09:45.335Z,9.90
2018-12-21T06:12:14.555Z,9.90
2018-12-21T06:14:43.660Z,9.90
2018-12-21T06:17:12.699Z,9.90
2018-12-21T06:19:41.835Z,9.90
2018-12-21T06:22:11.167Z,9.90
2018-12-21T06:24:40.234Z,10.00
2018-12-21T06:27:09.726Z,10.00
2018-12-21T06:29:38.769Z,10.00
2018-12-21T06:32:08.269Z,10.00
2018-12-21T06:34:37.355Z,10.00
2018-12-21T06:37:06.455Z,10.10
2018-12-21T06:39:35.772Z,10.10
2018-12-21T06:42:04.834Z,10.10
2018-12-21T06:44:34.530Z,10.10
2018-12-21T06:47:03.606Z,10.10
2018-12-21T06:49:32.708Z,10.20
2018-12-21T06:52:01.764Z,10.20
2018-12-21T06:54:30.947Z,10.20
2018-12-21T06:57:00.126Z,10.20
2018-12-21T06:59:29.442Z,10.20
2018-12-21T07:01:59.677Z,10.30
2018-12-21T07:04:28.842Z,10.30
2018-12-21T07:06:58.372Z,10.30
2018-12-21T07:09:27.392Z,10.40
2018-12-21T07:11:56.474Z,10.30
2018-12-21T07:14:25.503Z,10.40
2018-12-21T07:16:55.574Z,10.40
2018-12-21T07:19:24.710Z,10.40
2018-12-21T07:21:53.971Z,10.40
2018-12-21T07:24:23.135Z,10.40
2018-12-21T07:26:52.169Z,10.50
2018-12-21T07:29:21.475Z,10.50
2018-12-21T07:31:50.619Z,10.50
2018-12-21T07:34:19.998Z,10.50
2018-12-21T07:36:49.063Z,10.50
2018-12-21T07:39:18.096Z,10.60
2018-12-21T07:41:47.260Z,10.60
2018-12-21T07:44:17.012Z,10.70
2018-12-21T07:46:46.151Z,10.70
2018-12-21T07:49:15.230Z,10.70
2018-12-21T07:51:44.697Z,10.80
2018-12-21T07:54:13.710Z,10.80
2018-12-21T07:56:42.825Z,10.90
2018-12-21T07:59:12.100Z,10.90
2018-12-21T08:01:41.351Z,11.00
2018-12-21T08:04:10.637Z,11.00
2018-12-21T08:06:41.398Z,11.00
2018-12-21T08:09:10.945Z,11.10
2018-12-21T08:11:40.178Z,11.20
2018-12-21T08:14:09.998Z,11.20
2018-12-21T08:16:39.077Z,11.30
2018-12-21T08:19:08.154Z,11.30
2018-12-21T08:21:37.309Z,11.40
2018-12-21T08:24:06.351Z,11.40
2018-12-21T08:26:35.464Z,11.50
2018-12-21T08:29:04.519Z,11.50
2018-12-21T08:31:33.608Z,11.60
2018-12-21T08:34:03.381Z,11.60
2018-12-21T08:36:32.425Z,11.70
2018-12-21T08:39:01.815Z,11.80
2018-12-21T08:41:30.865Z,11.80
2018-12-21T08:44:01.346Z,11.90
2018-12-21T08:46:30.508Z,12.00
2018-12-21T08:48:59.573Z,12.00
2018-12-21T08:51:28.704Z,12.10
2018-12-21T08:53:58.016Z,12.10
2018-12-21T08:56:27.259Z,12.20
2018-12-21T08:58:56.537Z,12.30
2018-12-21T09:01:25.587Z,12.30
2018-12-21T09:03:55.036Z,12.40
2018-12-21T09:06:24.089Z,12.50
2018-12-21T09:08:53.323Z,12.60
2018-12-21T09:11:22.607Z,12.70
2018-12-21T09:13:51.741Z,12.80
2018-12-21T09:16:21.136Z,12.80
2018-12-21T09:18:50.168Z,12.90
2018-12-21T09:21:19.478Z,12.90
2018-12-21T09:23:48.658Z,12.90
2018-12-21T09:26:18.653Z,12.90
2018-12-21T09:28:47.937Z,12.90
2018-12-21T09:31:17.210Z,12.90
2018-12-21T09:33:46.290Z,12.90
2018-12-21T09:36:15.476Z,12.80
2018-12-21T09:38:45.478Z,12.80
2018-12-21T09:41:14.572Z,12.80
2018-12-21T09:43:44.650Z,12.80
2018-12-21T09:46:13.669Z,12.80
2018-12-21T09:48:47.436Z,12.80
2018-12-21T09:51:17.325Z,12.90
2018-12-21T09:53:46.475Z,12.90
2018-12-21T09:56:16.053Z,12.90
2018-12-21T09:58:46.248Z,12.90
2018-12-21T10:01:16.023Z,12.90
2018-12-21T10:03:45.073Z,12.90
2018-12-21T10:06:14.536Z,12.90
2018-12-21T10:08:44.469Z,12.90
2018-12-21T10:11:13.622Z,12.90
2018-12-21T10:13:42.922Z,12.90
2018-12-21T10:16:12.229Z,12.90
2018-12-21T10:18:41.351Z,13.00
2018-12-21T10:21:10.832Z,13.00
2018-12-21T10:23:41.426Z,13.00
2018-12-21T10:26:17.212Z,12.90
2018-12-21T10:28:46.305Z,12.90
2018-12-21T10:31:15.609Z,12.90
2018-12-21T10:33:45.524Z,13.00
2018-12-21T10:36:15.673Z,13.00
2018-12-21T10:38:44.912Z,13.00
2018-12-21T10:41:14.433Z,13.10
2018-12-21T10:43:43.675Z,13.10
2018-12-21T10:46:12.780Z,13.10
2018-12-21T10:48:42.038Z,13.00
2018-12-21T10:51:12.011Z,13.00
2018-12-21T10:53:41.436Z,13.00
2018-12-21T10:56:10.701Z,13.00
2018-12-21T10:58:40.066Z,13.00
2018-12-21T11:01:09.223Z,13.00
2018-12-21T11:03:38.368Z,13.10
2018-12-21T11:06:07.600Z,13.10
2018-12-21T11:08:36.662Z,13.10
2018-12-21T11:11:05.744Z,13.30
2018-12-21T11:13:35.210Z,13.40
2018-12-21T11:16:04.471Z,13.50
2018-12-21T11:18:34.554Z,13.50
2018-12-21T11:21:04.123Z,13.50
2018-12-21T11:23:33.193Z,13.40
2018-12-21T11:26:03.888Z,13.30
2018-12-21T11:28:33.073Z,13.20
2018-12-21T11:31:02.182Z,13.20
2018-12-21T11:33:31.291Z,13.10
2018-12-21T11:36:00.665Z,13.10
2018-12-21T11:38:29.753Z,13.00
2018-12-21T11:40:58.841Z,13.00
2018-12-21T11:43:28.011Z,13.00
2018-12-21T11:45:57.867Z,13.00
2018-12-21T11:48:27.068Z,13.10
2018-12-21T11:50:56.286Z,13.20
2018-12-21T11:53:26.164Z,13.30
2018-12-21T11:55:55.516Z,13.40
2018-12-21T11:58:24.600Z,13.40
2018-12-21T12:00:54.557Z,13.50
2018-12-21T12:03:23.670Z,13.50
2018-12-21T12:05:55.191Z,13.50
2018-12-21T12:08:24.990Z,13.60
2018-12-21T12:10:54.374Z,13.70
2018-12-21T12:13:23.455Z,13.80
2018-12-21T12:15:52.878Z,13.80
2018-12-21T12:18:21.957Z,13.90
2018-12-21T12:20:51.146Z,13.90
2018-12-21T12:23:20.947Z,13.90
2018-12-21T12:25:50.107Z,13.80
2018-12-21T12:28:19.270Z,13.80
2018-12-21T12:30:48.350Z,13.80
2018-12-21T12:33:17.425Z,13.90
2018-12-21T12:35:46.887Z,13.80
2018-12-21T12:38:22.869Z,13.80
2018-12-21T12:40:52.071Z,13.80
2018-12-21T12:43:21.478Z,13.80
2018-12-21T12:45:50.915Z,13.80
2018-12-21T12:48:20.416Z,13.80
2018-12-21T12:50:50.052Z,13.80
2018-12-21T12:53:19.207Z,13.80
2018-12-21T12:55:49.062Z,13.70
2018-12-21T12:58:19.398Z,13.70
2018-12-21T13:00:48.474Z,13.70
2018-12-21T13:03:18.746Z,13.70
2018-12-21T13:05:47.906Z,13.70
2018-12-21T13:08:17.232Z,13.60
2018-12-21T13:10:46.317Z,13.60
2018-12-21T13:13:16.231Z,13.60
2018-12-21T13:15:45.888Z,13.50
2018-12-21T13:18:14.937Z,13.50
2018-12-21T13:20:44.056Z,13.50
2018-12-21T13:23:13.236Z,13.50
2018-12-21T13:25:42.475Z,13.50
2018-12-21T13:28:11.580Z,13.40
2018-12-21T13:30:40.898Z,13.40
2018-12-21T13:33:10.081Z,13.40
2018-12-21T13:35:39.363Z,13.40
2018-12-21T13:38:08.530Z,13.40
2018-12-21T13:40:37.772Z,13.40
2018-12-21T13:43:06.953Z,13.40
2018-12-21T13:45:36.115Z,13.30
2018-12-21T13:48:05.430Z,13.30
2018-12-21T13:50:34.545Z,13.30
2018-12-21T13:53:04.120Z,13.30
2018-12-21T13:55:33.321Z,13.30
2018-12-21T13:58:02.646Z,13.20
2018-12-21T14:00:31.789Z,13.30
2018-12-21T14:03:01.859Z,13.20
2018-12-21T14:05:30.889Z,13.20
2018-12-21T14:08:00.243Z,13.10
2018-12-21T14:10:29.446Z,13.10
2018-12-21T14:12:58.696Z,13.10
2018-12-21T14:15:28.341Z,13.00
2018-12-21T14:17:57.464Z,13.00
2018-12-21T14:20:26.678Z,13.00
2018-12-21T14:22:55.781Z,13.00
2018-12-21T14:25:28.796Z,12.90
2018-12-21T14:27:56.442Z,12.90
2018-12-21T14:30:25.616Z,12.80
2018-12-21T14:32:54.678Z,12.90
2018-12-21T14:35:23.898Z,12.90
2018-12-21T14:37:53.117Z,12.90
2018-12-21T14:40:22.229Z,12.90
2018-12-21T14:42:51.294Z,12.90
2018-12-21T14:45:20.507Z,12.90
2018-12-21T14:47:49.697Z,12.90
2018-12-21T14:50:18.858Z,12.90
2018-12-21T14:52:48.025Z,12.80
2018-12-21T14:55:17.095Z,12.80
2018-12-21T14:57:50.697Z,12.70
2018-12-21T15:00:19.801Z,12.70
2018-12-21T15:02:48.870Z,12.70
2018-12-21T15:05:17.950Z,12.70
2018-12-21T15:07:46.988Z,12.70
2018-12-21T15:10:16.289Z,12.70
2018-12-21T15:12:45.491Z,12.70
2018-12-21T15:15:14.605Z,12.60
2018-12-21T15:17:44.004Z,12.60
2018-12-21T15:20:13.095Z,12.60
2018-12-21T15:22:42.792Z,12.60
2018-12-21T15:25:13.441Z,12.60
2018-12-21T15:27:42.771Z,12.60
2018-12-21T15:30:12.567Z,12.60
2018-12-21T15:32:41.933Z,12.60
2018-12-21T15:35:10.985Z,12.50
2018-12-21T15:37:40.206Z,12.50
2018-12-21T15:40:09.483Z,12.50
2018-12-21T15:42:38.526Z,12.50
2018-12-21T15:45:07.766Z,12.40
2018-12-21T15:47:36.966Z,12.50
2018-12-21T15:50:08.669Z,12.40
2018-12-21T15:52:38.231Z,12.40
2018-12-21T15:55:07.410Z,12.40
2018-12-21T15:57:36.438Z,12.40
2018-12-21T16:00:08.600Z,12.40
2018-12-21T16:02:37.780Z,12.40
2018-12-21T16:05:07.266Z,12.40
2018-12-21T16:07:36.589Z,12.40
2018-12-21T16:10:07.495Z,12.30
2018-12-21T16:12:36.650Z,12.40
2018-12-21T16:15:06.116Z,12.40
2018-12-21T16:17:35.354Z,12.40
2018-12-21T16:20:08.008Z,12.40
2018-12-21T16:22:42.318Z,12.40
2018-12-21T16:25:08.248Z,12.40
2018-12-21T16:27:42.293Z,12.30
2018-12-21T16:30:14.798Z,12.30
2018-12-21T16:32:47.224Z,12.30
2018-12-21T16:35:16.620Z,12.30
2018-12-21T16:37:45.757Z,12.30
2018-12-21T16:40:15.587Z,12.30
2018-12-21T16:42:46.365Z,12.30
2018-12-21T16:45:15.451Z,12.30
2018-12-21T16:47:44.587Z,12.30
2018-12-21T16:50:14.085Z,12.20
2018-12-21T16:52:43.549Z,12.20
2018-12-21T16:55:12.614Z,12.20
2018-12-21T16:57:41.724Z,12.20
2018-12-21T17:00:13.129Z,12.20
2018-12-21T17:02:46.651Z,12.20
2018-12-21T17:05:16.450Z,12.20
2018-12-21T17:07:47.250Z,12.20
2018-12-21T17:10:20.208Z,12.20
2018-12-21T17:12:50.493Z,12.20
2018-12-21T17:15:19.840Z,12.20
2018-12-21T17:17:53.028Z,12.20
2018-12-21T17:20:22.733Z,12.20
2018-12-21T17:22:54.950Z,12.20
2018-12-21T17:25:24.022Z,12.20
2018-12-21T17:27:53.338Z,12.20
2018-12-21T17:30:23.138Z,12.20
2018-12-21T17:32:52.483Z,12.20
2018-12-21T17:35:22.069Z,12.20
2018-12-21T17:37:51.467Z,12.20
2018-12-21T17:40:20.719Z,12.20
2018-12-21T17:42:49.915Z,12.20
2018-12-21T17:45:19.084Z,12.20
2018-12-21T17:47:48.211Z,12.20
2018-12-21T17:50:17.691Z,12.10
2018-12-21T17:52:50.845Z,12.10
2018-12-21T17:55:20.307Z,12.20
2018-12-21T17:57:49.622Z,12.20
2018-12-21T18:00:21.383Z,12.20
2018-12-21T18:02:52.986Z,12.10
2018-12-21T18:05:23.030Z,12.10
2018-12-21T18:07:52.705Z,12.20
2018-12-21T18:10:21.745Z,12.20
2018-12-21T18:12:51.053Z,12.20
2018-12-21T18:15:20.184Z,12.10
2018-12-21T18:17:49.411Z,12.10
2018-12-21T18:20:18.641Z,12.10
2018-12-21T18:22:48.050Z,12.00
2018-12-21T18:25:21.996Z,12.00
2018-12-21T18:27:53.219Z,12.00
2018-12-21T18:30:27.801Z,12.00
2018-12-21T18:33:00.314Z,11.90
2018-12-21T18:35:29.407Z,11.90
2018-12-21T18:38:00.738Z,11.80
2018-12-21T18:40:31.022Z,11.90
2018-12-21T18:43:00.592Z,11.80
2018-12-21T18:45:30.949Z,11.80
2018-12-21T18:48:02.714Z,11.80
2018-12-21T18:50:32.691Z,11.80
2018-12-21T18:53:02.734Z,11.80
2018-12-21T18:55:35.000Z,11.80
2018-12-21T18:58:04.375Z,11.80
2018-12-21T19:00:35.118Z,11.70
2018-12-21T19:03:05.011Z,11.80
2018-12-21T19:05:40.775Z,11.70
2018-12-21T19:08:15.487Z,11.70
2018-12-21T19:10:44.756Z,11.70
2018-12-21T19:13:15.020Z,11.70
2018-12-21T19:15:45.817Z,11.60
2018-12-21T19:18:15.246Z,11.60
2018-12-21T19:20:44.338Z,11.60
2018-12-21T19:23:14.446Z,11.60
2018-12-21T19:25:44.408Z,11.60
2018-12-21T19:28:13.520Z,11.60
2018-12-21T19:30:43.127Z,11.60
2018-12-21T19:33:12.209Z,11.60
2018-12-21T19:35:41.728Z,11.60
2018-12-21T19:38:10.805Z,11.50
2018-12-21T19:40:40.128Z,11.50
2018-12-21T19:43:09.386Z,11.40
2018-12-21T19:45:38.682Z,11.40
2018-12-21T19:48:07.732Z,11.40
2018-12-21T19:50:37.715Z,11.40
2018-12-21T19:53:06.777Z,11.40
2018-12-21T19:55:48.934Z,11.50
2018-12-21T19:58:18.411Z,11.50
2018-12-21T20:00:47.519Z,11.50
2018-12-21T20:03:16.707Z,11.50
2018-12-21T20:05:46.240Z,11.50
2018-12-21T20:08:17.010Z,11.50
2018-12-21T20:10:46.325Z,11.40
2018-12-21T20:13:15.684Z,11.40
2018-12-21T20:15:44.911Z,11.40
2018-12-21T20:18:14.409Z,11.50
2018-12-21T20:20:43.547Z,11.50
2018-12-21T20:23:15.413Z,11.50
2018-12-21T20:25:44.489Z,11.50
2018-12-21T20:28:14.252Z,11.40
2018-12-21T20:30:44.764Z,11.40
2018-12-21T20:33:14.489Z,11.30
2018-12-21T20:35:44.393Z,11.30
2018-12-21T20:38:21.077Z,11.20
2018-12-21T20:40:45.031Z,11.20
2018-12-21T20:43:14.444Z,11.10
2018-12-21T20:45:44.410Z,11.10
2018-12-21T20:48:13.489Z,11.10
2018-12-21T20:50:42.697Z,11.10
2018-12-21T20:53:16.282Z,11.20
2018-12-21T20:55:49.424Z,11.20
2018-12-21T20:58:28.108Z,11.10
2018-12-21T21:00:57.581Z,11.10
2018-12-21T21:03:26.640Z,11.10
2018-12-21T21:05:56.346Z,11.00
2018-12-21T21:08:25.431Z,11.00
2018-12-21T21:10:54.663Z,11.00
2018-12-21T21:13:24.132Z,10.90
2018-12-21T21:15:53.278Z,10.90
2018-12-21T21:18:22.419Z,10.90
2018-12-21T21:20:51.968Z,10.90
2018-12-21T21:23:22.041Z,10.90
2018-12-21T21:25:51.183Z,10.90
2018-12-21T21:28:20.251Z,10.90
2018-12-21T21:30:51.094Z,11.00
2018-12-21T21:33:20.913Z,11.00
2018-12-21T21:35:50.352Z,10.90
2018-12-21T21:38:19.550Z,11.00
2018-12-21T21:40:48.632Z,11.00
2018-12-21T21:43:20.498Z,11.00
2018-12-21T21:45:49.545Z,11.10
2018-12-21T21:48:20.147Z,11.00
2018-12-21T21:50:49.336Z,11.00
2018-12-21T21:53:23.224Z,11.10
2018-12-21T21:55:53.844Z,11.00
2018-12-21T21:58:22.964Z,11.00
2018-12-21T22:00:56.651Z,11.00
2018-12-21T22:03:26.405Z,11.00
2018-12-21T22:05:56.205Z,11.00
2018-12-21T22:08:25.890Z,11.00
2018-12-21T22:11:01.742Z,10.90
2018-12-21T22:13:26.032Z,10.90
2018-12-21T22:15:55.180Z,10.80
2018-12-21T22:18:24.265Z,10.80
2018-12-21T22:20:53.341Z,10.80
2018-12-21T22:23:23.109Z,10.80
2018-12-21T22:25:53.436Z,10.80
2018-12-21T22:28:23.357Z,10.80
2018-12-21T22:30:52.703Z,10.80
2018-12-21T22:33:21.770Z,10.80
2018-12-21T22:35:57.483Z,10.80
2018-12-21T22:38:26.791Z,10.80
2018-12-21T22:40:56.156Z,10.80
2018-12-21T22:43:25.217Z,10.80
2018-12-21T22:45:54.319Z,10.80
2018-12-21T22:48:23.903Z,10.90
2018-12-21T22:50:53.689Z,10.80
2018-12-21T22:53:22.786Z,10.90
2018-12-21T22:55:51.964Z,10.80
2018-12-21T22:58:21.089Z,10.90
2018-12-21T23:00:50.714Z,10.80
2018-12-21T23:03:19.933Z,10.80
2018-12-21T23:05:49.030Z,10.80
2018-12-21T23:08:18.090Z,10.90
2018-12-21T23:10:47.182Z,10.90
2018-12-21T23:13:16.898Z,10.90
2018-12-21T23:15:46.507Z,10.90
2018-12-21T23:18:17.553Z,10.90
2018-12-21T23:20:46.714Z,10.80
2018-12-21T23:23:20.555Z,10.80
2018-12-21T23:25:49.733Z,10.80
2018-12-21T23:28:18.921Z,10.80
2018-12-21T23:30:48.070Z,10.80
2018-12-21T23:33:17.494Z,10.80
2018-12-21T23:35:46.577Z,10.80
2018-12-21T23:38:15.617Z,10.80
2018-12-21T23:40:44.768Z,10.80
2018-12-21T23:43:14.439Z,10.80
2018-12-21T23:45:43.649Z,10.80
2018-12-21T23:48:12.927Z,10.80
2018-12-21T23:50:41.969Z,10.80
2018-12-21T23:53:11.228Z,10.80
2018-12-21T23:55:40.433Z,10.80
2018-12-21T23:58:13.698Z,10.90
